Time;durP1;ratioP1;P1;durP2;ratioP2;P2;SDS_P1;SDS_P2;PMS_P1;PMS_P2;Temp;Humidity;BMP_temperature;BMP_pressure;BME280_temperature;BME280_humidity;BME280_pressure;Samples;Min_cycle;Max_cycle;Signal;HPM_P1;HPM_P2
2022/04/12 00:00:45;;;;;;;10.80;5.15;;;;;;;;;;5095223;28;20040;-72
2022/04/12 00:03:11;;;;;;;10.13;5.15;;;;;;;;;;5088918;28;20115;-72
2022/04/12 00:05:38;;;;;;;9.55;5.32;;;;;;;;;;5078703;28;20034;-71
2022/04/12 00:08:05;;;;;;;9.13;4.70;;;;;;;;;;5090518;28;20077;-72
2022/04/12 00:10:31;;;;;;;9.15;5.07;;;;;;;;;;5093880;28;20051;-71
2022/04/12 00:12:58;;;;;;;12.60;5.57;;;;;;;;;;5092530;28;20043;-72
2022/04/12 00:15:24;;;;;;;10.05;5.07;;;;;;;;;;5092489;28;20411;-71
2022/04/12 00:20:45;;;;;;;11.52;4.75;;;;;;;;;;5003051;28;20511;-72
2022/04/12 00:23:13;;;;;;;10.75;5.15;;;;;;;;;;5093017;28;20802;-71
2022/04/12 00:25:40;;;;;;;10.40;5.65;;;;;;;;;;5092552;28;20020;-71
2022/04/12 00:28:06;;;;;;;10.98;4.80;;;;;;;;;;5101318;28;20031;-71
2022/04/12 00:30:32;;;;;;;14.88;5.05;;;;;;;;;;5092864;28;20544;-71
2022/04/12 00:32:58;;;;;;;7.90;4.97;;;;;;;;;;5095437;28;20036;-71
2022/04/12 00:35:25;;;;;;;9.18;5.25;;;;;;;;;;5080732;28;20036;-71
2022/04/12 00:37:51;;;;;;;9.85;5.07;;;;;;;;;;5091036;28;20024;-72
2022/04/12 00:40:18;;;;;;;8.90;4.97;;;;;;;;;;5087033;28;20066;-72
2022/04/12 00:42:44;;;;;;;8.93;4.60;;;;;;;;;;5090374;28;20389;-71
2022/04/12 00:45:10;;;;;;;8.63;4.70;;;;;;;;;;5079752;28;20028;-71
2022/04/12 00:47:37;;;;;;;10.05;4.93;;;;;;;;;;5094454;28;20046;-72
2022/04/12 00:50:03;;;;;;;13.38;5.07;;;;;;;;;;5089025;28;20358;-71
2022/04/12 00:52:30;;;;;;;9.57;4.97;;;;;;;;;;5080362;28;20032;-71
2022/04/12 00:54:56;;;;;;;11.40;4.50;;;;;;;;;;5083950;28;20488;-71
2022/04/12 00:57:22;;;;;;;9.77;4.97;;;;;;;;;;5092254;28;20460;-71
2022/04/12 00:59:51;;;;;;;8.63;4.70;;;;;;;;;;5084201;28;20051;-71
2022/04/12 01:02:17;;;;;;;7.38;4.43;;;;;;;;;;5100099;28;20119;-72
2022/04/12 01:04:43;;;;;;;8.57;4.50;;;;;;;;;;5084239;28;20135;-72
2022/04/12 01:07:09;;;;;;;8.27;4.25;;;;;;;;;;5089775;28;20024;-72
2022/04/12 01:09:35;;;;;;;8.57;4.93;;;;;;;;;;5092168;28;20020;-71
2022/04/12 01:12:09;;;;;;;6.53;4.22;;;;;;;;;;5083465;28;20028;-71
2022/04/12 01:14:35;;;;;;;10.30;4.05;;;;;;;;;;5091676;28;20043;-71
2022/04/12 01:17:03;;;;;;;10.25;4.53;;;;;;;;;;5086335;28;20354;-71
2022/04/12 01:19:29;;;;;;;14.00;4.82;;;;;;;;;;5092855;28;20024;-71
2022/04/12 01:22:02;;;;;;;7.63;4.25;;;;;;;;;;5083774;28;20097;-71
2022/04/12 01:24:28;;;;;;;11.40;4.40;;;;;;;;;;5091853;28;20403;-71
2022/04/12 01:26:54;;;;;;;7.63;4.25;;;;;;;;;;5086927;28;20111;-71
2022/04/12 01:29:20;;;;;;;9.00;5.10;;;;;;;;;;5085688;28;20124;-71
2022/04/12 01:31:46;;;;;;;9.55;4.40;;;;;;;;;;5087231;28;20024;-72
2022/04/12 01:34:12;;;;;;;7.28;4.28;;;;;;;;;;5092776;28;20032;-71
2022/04/12 01:36:38;;;;;;;8.85;4.32;;;;;;;;;;5082778;28;20024;-72
2022/04/12 01:39:04;;;;;;;10.30;4.43;;;;;;;;;;5089928;28;20024;-72
2022/04/12 01:41:30;;;;;;;11.02;4.78;;;;;;;;;;5090482;28;20043;-72
2022/04/12 01:43:57;;;;;;;9.27;4.30;;;;;;;;;;5082744;28;20062;-72
2022/04/12 01:46:23;;;;;;;9.68;4.53;;;;;;;;;;5090828;28;20282;-71
2022/04/12 01:48:49;;;;;;;9.85;4.82;;;;;;;;;;5097583;28;20023;-71
2022/04/12 01:51:16;;;;;;;7.53;4.90;;;;;;;;;;5091865;28;20064;-71
2022/04/12 01:53:42;;;;;;;14.60;5.10;;;;;;;;;;5091151;28;20088;-72
2022/04/12 01:56:08;;;;;;;8.52;5.00;;;;;;;;;;5087256;28;20029;-71
2022/04/12 01:58:35;;;;;;;9.98;5.20;;;;;;;;;;5087483;28;20056;-71
2022/04/12 02:01:02;;;;;;;8.43;4.30;;;;;;;;;;5083583;28;20461;-72
2022/04/12 02:03:28;;;;;;;8.27;4.70;;;;;;;;;;5085434;28;20028;-72
2022/04/12 02:05:54;;;;;;;9.07;4.50;;;;;;;;;;5091228;28;20051;-71
2022/04/12 02:08:21;;;;;;;8.43;3.95;;;;;;;;;;5091454;28;20031;-72
2022/04/12 02:10:47;;;;;;;7.07;4.35;;;;;;;;;;5082526;28;20354;-72
2022/04/12 02:13:13;;;;;;;8.77;4.63;;;;;;;;;;5090876;28;20507;-72
2022/04/12 02:15:39;;;;;;;8.98;4.60;;;;;;;;;;5091248;28;20019;-71
2022/04/12 02:18:05;;;;;;;7.85;4.30;;;;;;;;;;5089677;28;20028;-71
2022/04/12 02:20:31;;;;;;;7.30;4.13;;;;;;;;;;5086883;28;20020;-72
2022/04/12 02:22:57;;;;;;;9.05;5.43;;;;;;;;;;5090604;28;20393;-72
2022/04/12 02:25:23;;;;;;;8.05;4.68;;;;;;;;;;5090032;28;20027;-72
2022/04/12 02:27:49;;;;;;;9.05;4.80;;;;;;;;;;5090849;28;20469;-71
2022/04/12 02:30:15;;;;;;;9.77;5.18;;;;;;;;;;5090720;28;20024;-72
2022/04/12 02:32:41;;;;;;;8.32;5.22;;;;;;;;;;5072021;28;20028;-72
2022/04/12 02:35:08;;;;;;;9.27;4.57;;;;;;;;;;5106940;22;20069;-71
2022/04/12 02:37:34;;;;;;;8.75;4.88;;;;;;;;;;5106183;28;20046;-72
2022/04/12 02:40:00;;;;;;;9.13;4.28;;;;;;;;;;5092120;28;20024;-70
2022/04/12 02:42:26;;;;;;;7.18;4.30;;;;;;;;;;5111149;28;20102;-70
2022/04/12 02:44:52;;;;;;;12.73;4.57;;;;;;;;;;5093445;28;20361;-71
2022/04/12 02:47:18;;;;;;;8.10;5.05;;;;;;;;;;5104242;28;20110;-70
2022/04/12 02:49:44;;;;;;;11.75;4.30;;;;;;;;;;5107905;28;20095;-71
2022/04/12 02:52:10;;;;;;;9.27;4.28;;;;;;;;;;5090033;28;20396;-72
2022/04/12 02:54:36;;;;;;;8.68;4.10;;;;;;;;;;5087287;28;20016;-70
2022/04/12 02:57:02;;;;;;;10.02;4.50;;;;;;;;;;5099628;28;20027;-70
2022/04/12 02:59:28;;;;;;;10.13;4.18;;;;;;;;;;5109650;28;20028;-70
2022/04/12 03:01:54;;;;;;;8.07;4.60;;;;;;;;;;5105880;28;20039;-71
2022/04/12 03:04:20;;;;;;;10.55;5.13;;;;;;;;;;5106403;28;20016;-70
2022/04/12 03:06:46;;;;;;;8.57;4.43;;;;;;;;;;5115091;27;20267;-71
2022/04/12 03:09:12;;;;;;;7.78;4.47;;;;;;;;;;5108545;28;20465;-71
2022/04/12 03:11:39;;;;;;;9.38;5.00;;;;;;;;;;5088673;28;20102;-71
2022/04/12 03:14:08;;;;;;;10.23;5.25;;;;;;;;;;5110756;28;20020;-70
2022/04/12 03:16:34;;;;;;;9.50;5.40;;;;;;;;;;5086144;28;20042;-70
2022/04/12 03:19:02;;;;;;;12.05;5.15;;;;;;;;;;5108138;28;20015;-71
2022/04/12 03:21:28;;;;;;;9.48;4.85;;;;;;;;;;5107829;28;20475;-70
2022/04/12 03:23:54;;;;;;;9.82;4.95;;;;;;;;;;5106455;28;20094;-70
2022/04/12 03:26:20;;;;;;;11.07;5.28;;;;;;;;;;5107855;28;20438;-71
2022/04/12 03:28:46;;;;;;;9.18;4.85;;;;;;;;;;5098696;28;20417;-72
2022/04/12 03:31:12;;;;;;;6.70;3.70;;;;;;;;;;5087525;28;20555;-70
2022/04/12 03:33:38;;;;;;;10.38;4.85;;;;;;;;;;5106325;28;20114;-70
2022/04/12 03:36:04;;;;;;;9.02;4.45;;;;;;;;;;5106957;28;20036;-73
2022/04/12 03:38:30;;;;;;;9.40;4.43;;;;;;;;;;5092408;28;20035;-71
2022/04/12 03:40:58;;;;;;;9.30;5.07;;;;;;;;;;5107984;28;20530;-71
2022/04/12 03:43:24;;;;;;;15.05;5.18;;;;;;;;;;5108233;28;20019;-71
2022/04/12 03:45:51;;;;;;;8.85;4.95;;;;;;;;;;5081086;28;20015;-71
2022/04/12 03:48:17;;;;;;;15.70;5.95;;;;;;;;;;5097872;28;20023;-72
2022/04/12 03:50:44;;;;;;;8.95;4.55;;;;;;;;;;5108912;28;20561;-71
2022/04/12 03:53:10;;;;;;;11.07;5.18;;;;;;;;;;5082833;28;20032;-72
2022/04/12 03:55:38;;;;;;;8.05;4.60;;;;;;;;;;5105414;28;20314;-71
2022/04/12 03:58:05;;;;;;;11.07;4.65;;;;;;;;;;5107099;28;21740;-71
2022/04/12 04:00:32;;;;;;;11.35;5.03;;;;;;;;;;5089563;28;20384;-71
2022/04/12 04:02:58;;;;;;;11.82;5.40;;;;;;;;;;5108666;28;20059;-70
2022/04/12 04:05:24;;;;;;;8.38;4.88;;;;;;;;;;5108142;28;20541;-70
2022/04/12 04:07:50;;;;;;;12.52;5.82;;;;;;;;;;5081450;28;20031;-71
2022/04/12 04:10:17;;;;;;;8.73;4.97;;;;;;;;;;5090718;28;20030;-71
2022/04/12 04:12:43;;;;;;;16.85;6.07;;;;;;;;;;5106295;28;20124;-71
2022/04/12 04:15:12;;;;;;;10.43;5.30;;;;;;;;;;5105365;28;20020;-72
2022/04/12 04:17:47;;;;;;;10.45;4.78;;;;;;;;;;5103832;28;20011;-71
2022/04/12 04:20:14;;;;;;;10.43;5.88;;;;;;;;;;5087910;28;20024;-71
2022/04/12 04:22:40;;;;;;;9.40;5.13;;;;;;;;;;5108055;28;20465;-71
2022/04/12 04:25:07;;;;;;;9.68;5.43;;;;;;;;;;5094846;28;20019;-71
2022/04/12 04:27:34;;;;;;;14.32;6.10;;;;;;;;;;5084027;28;20130;-72
2022/04/12 04:30:00;;;;;;;9.63;4.80;;;;;;;;;;5091196;28;20114;-71
2022/04/12 04:32:26;;;;;;;13.60;5.70;;;;;;;;;;5097858;28;20039;-71
2022/04/12 04:34:52;;;;;;;9.38;4.78;;;;;;;;;;5104477;28;20047;-71
2022/04/12 04:37:18;;;;;;;12.02;5.65;;;;;;;;;;5114675;28;20077;-71
2022/04/12 04:39:44;;;;;;;11.32;6.10;;;;;;;;;;5099142;28;20084;-70
2022/04/12 04:42:11;;;;;;;11.15;5.68;;;;;;;;;;5108969;28;20468;-72
2022/04/12 04:44:37;;;;;;;12.63;5.93;;;;;;;;;;5110674;28;20051;-71
2022/04/12 04:47:03;;;;;;;8.88;5.55;;;;;;;;;;5100259;28;20016;-72
2022/04/12 04:49:29;;;;;;;8.52;5.55;;;;;;;;;;5089771;28;20019;-74
2022/04/12 04:51:55;;;;;;;9.05;5.28;;;;;;;;;;5113695;28;20039;-72
2022/04/12 04:54:22;;;;;;;13.43;6.18;;;;;;;;;;5107190;28;20028;-72
2022/04/12 04:56:47;;;;;;;10.50;5.65;;;;;;;;;;5113963;28;20030;-68
2022/04/12 04:59:19;;;;;;;9.50;5.50;;;;;;;;;;5086419;28;20381;-68
2022/04/12 05:01:45;;;;;;;14.43;6.47;;;;;;;;;;5094437;28;20031;-68
2022/04/12 05:04:11;;;;;;;11.52;5.20;;;;;;;;;;5108130;28;20027;-68
2022/04/12 05:06:37;;;;;;;12.40;5.63;;;;;;;;;;5092700;28;20024;-68
2022/04/12 05:09:03;;;;;;;8.40;5.07;;;;;;;;;;5112251;28;20032;-67
2022/04/12 05:11:31;;;;;;;11.02;5.38;;;;;;;;;;5092025;28;20024;-67
2022/04/12 05:13:57;;;;;;;10.80;5.57;;;;;;;;;;5108935;28;20051;-68
2022/04/12 05:16:23;;;;;;;9.00;4.95;;;;;;;;;;5102417;28;20063;-67
2022/04/12 05:18:51;;;;;;;9.77;5.35;;;;;;;;;;5090755;28;20130;-68
2022/04/12 05:21:18;;;;;;;11.82;5.15;;;;;;;;;;5085659;27;20312;-68
2022/04/12 05:23:44;;;;;;;9.00;5.32;;;;;;;;;;5114668;27;20023;-68
2022/04/12 05:29:44;;;;;;;16.60;5.93;;;;;;;;;;5116886;28;20026;-67
2022/04/12 05:32:12;;;;;;;12.80;5.93;;;;;;;;;;5098060;28;20069;-68
2022/04/12 05:34:42;;;;;;;10.52;5.63;;;;;;;;;;5106402;28;20614;-68
2022/04/12 05:37:08;;;;;;;9.85;5.13;;;;;;;;;;5096410;28;20468;-67
2022/04/12 05:39:34;;;;;;;12.40;5.20;;;;;;;;;;5093756;28;20028;-67
2022/04/12 05:42:01;;;;;;;13.00;5.72;;;;;;;;;;5089262;28;20240;-68
2022/04/12 05:44:33;;;;;;;9.20;5.60;;;;;;;;;;5107797;28;20020;-67
2022/04/12 05:47:00;;;;;;;11.43;5.85;;;;;;;;;;5104812;28;20038;-68
2022/04/12 05:49:27;;;;;;;11.15;6.03;;;;;;;;;;5101945;28;20134;-67
2022/04/12 05:51:53;;;;;;;11.48;5.70;;;;;;;;;;5108807;28;20089;-67
2022/04/12 05:54:19;;;;;;;11.20;5.75;;;;;;;;;;5093471;28;20020;-67
2022/04/12 05:56:45;;;;;;;11.73;5.45;;;;;;;;;;5108289;28;20031;-67
2022/04/12 05:59:11;;;;;;;18.92;6.07;;;;;;;;;;5093007;28;20019;-67
2022/04/12 06:01:38;;;;;;;15.43;6.22;;;;;;;;;;5110603;28;20020;-67
2022/04/12 06:04:04;;;;;;;11.63;5.95;;;;;;;;;;5108937;28;20434;-68
2022/04/12 06:06:32;;;;;;;13.73;6.28;;;;;;;;;;5111204;28;20031;-67
2022/04/12 06:08:58;;;;;;;15.00;6.55;;;;;;;;;;5111376;27;20043;-67
2022/04/12 06:11:24;;;;;;;20.25;6.03;;;;;;;;;;5089291;28;20012;-67
2022/04/12 06:13:50;;;;;;;16.88;6.35;;;;;;;;;;5107962;28;20035;-67
2022/04/12 06:16:16;;;;;;;8.48;5.38;;;;;;;;;;5109935;28;20492;-68
2022/04/12 06:18:42;;;;;;;9.70;5.47;;;;;;;;;;5108394;28;20064;-68
2022/04/12 06:21:08;;;;;;;14.63;6.47;;;;;;;;;;5105644;28;20115;-68
2022/04/12 06:23:34;;;;;;;12.18;5.80;;;;;;;;;;5091791;28;20031;-67
2022/04/12 06:26:00;;;;;;;13.52;6.43;;;;;;;;;;5090003;28;20031;-67
2022/04/12 06:28:26;;;;;;;16.30;6.32;;;;;;;;;;5106355;28;20027;-67
2022/04/12 06:30:54;;;;;;;10.50;6.00;;;;;;;;;;5105655;28;20092;-67
2022/04/12 06:33:20;;;;;;;20.30;6.13;;;;;;;;;;5103617;28;20115;-67
2022/04/12 06:35:46;;;;;;;16.45;6.10;;;;;;;;;;5086794;28;20118;-68
2022/04/12 06:38:12;;;;;;;14.05;6.70;;;;;;;;;;5114576;27;20027;-68
2022/04/12 06:40:39;;;;;;;15.48;7.05;;;;;;;;;;5111524;28;20022;-68
2022/04/12 06:43:05;;;;;;;10.95;6.55;;;;;;;;;;5103059;28;20042;-67
2022/04/12 06:45:31;;;;;;;11.32;6.43;;;;;;;;;;5111479;28;20065;-68
2022/04/12 06:47:59;;;;;;;10.73;6.50;;;;;;;;;;5110844;28;20081;-68
2022/04/12 06:50:25;;;;;;;12.27;6.75;;;;;;;;;;5110531;28;20093;-68
2022/04/12 06:52:57;;;;;;;13.23;6.78;;;;;;;;;;5092638;28;20027;-67
2022/04/12 06:55:24;;;;;;;9.10;6.30;;;;;;;;;;5112509;28;20031;-67
2022/04/12 06:57:50;;;;;;;18.42;7.43;;;;;;;;;;5091062;28;20012;-67
2022/04/12 07:00:17;;;;;;;14.60;6.28;;;;;;;;;;5101782;28;20427;-68
2022/04/12 07:02:43;;;;;;;15.25;7.60;;;;;;;;;;5081775;28;20115;-67
2022/04/12 07:05:15;;;;;;;10.77;5.90;;;;;;;;;;5111017;28;20556;-68
2022/04/12 07:07:47;;;;;;;13.68;6.97;;;;;;;;;;5102132;27;20031;-67
2022/04/12 07:10:14;;;;;;;12.73;6.28;;;;;;;;;;5110521;28;20019;-67
2022/04/12 07:12:41;;;;;;;9.57;6.20;;;;;;;;;;5092771;28;20537;-68
2022/04/12 07:15:07;;;;;;;18.40;6.80;;;;;;;;;;5092220;28;20020;-68
2022/04/12 07:17:33;;;;;;;15.82;6.68;;;;;;;;;;5085140;28;20031;-67
2022/04/12 07:20:00;;;;;;;11.98;6.88;;;;;;;;;;5109576;28;20027;-68
2022/04/12 07:22:26;;;;;;;16.02;7.80;;;;;;;;;;5111574;27;20515;-67
2022/04/12 07:24:52;;;;;;;11.60;6.93;;;;;;;;;;5106632;27;20461;-68
2022/04/12 07:27:18;;;;;;;11.80;6.60;;;;;;;;;;5091610;28;20388;-68
2022/04/12 07:29:44;;;;;;;14.20;6.75;;;;;;;;;;5091129;28;20455;-68
2022/04/12 07:32:10;;;;;;;10.27;6.60;;;;;;;;;;5105728;28;20027;-67
2022/04/12 07:34:36;;;;;;;11.63;6.43;;;;;;;;;;5080802;28;20365;-67
2022/04/12 07:37:02;;;;;;;15.43;7.20;;;;;;;;;;5109346;28;20069;-68
2022/04/12 07:39:28;;;;;;;12.77;7.15;;;;;;;;;;5110430;27;20063;-67
2022/04/12 07:41:54;;;;;;;11.15;6.25;;;;;;;;;;5109806;28;20062;-67
2022/04/12 07:44:21;;;;;;;12.45;5.63;;;;;;;;;;5098894;28;20023;-68
2022/04/12 07:46:47;;;;;;;15.93;6.65;;;;;;;;;;5105120;28;20306;-67
2022/04/12 07:49:14;;;;;;;15.25;6.50;;;;;;;;;;5111400;28;20484;-68
2022/04/12 07:51:46;;;;;;;11.30;6.25;;;;;;;;;;5095761;28;20023;-67
2022/04/12 07:54:13;;;;;;;9.23;6.05;;;;;;;;;;5112730;28;20525;-68
2022/04/12 07:56:39;;;;;;;11.30;6.10;;;;;;;;;;5106007;28;20035;-68
2022/04/12 07:59:06;;;;;;;10.63;6.15;;;;;;;;;;5088471;28;20028;-68
2022/04/12 08:01:32;;;;;;;10.25;6.47;;;;;;;;;;5101613;28;20030;-68
2022/04/12 08:03:58;;;;;;;14.38;6.18;;;;;;;;;;5106137;28;20051;-68
2022/04/12 08:06:24;;;;;;;10.00;6.43;;;;;;;;;;5105250;28;20032;-68
2022/04/12 08:08:50;;;;;;;13.60;5.97;;;;;;;;;;5103660;28;20078;-68
2022/04/12 08:11:16;;;;;;;16.33;6.70;;;;;;;;;;5106788;28;20115;-68
2022/04/12 08:13:44;;;;;;;15.55;6.95;;;;;;;;;;5106600;28;20123;-67
2022/04/12 08:16:10;;;;;;;13.98;6.95;;;;;;;;;;5106813;28;20106;-68
2022/04/12 08:18:36;;;;;;;24.15;6.65;;;;;;;;;;5110165;28;20030;-68
2022/04/12 08:21:02;;;;;;;15.45;6.13;;;;;;;;;;5095319;28;20538;-69
2022/04/12 08:23:29;;;;;;;14.70;6.50;;;;;;;;;;5087709;28;20526;-69
2022/04/12 08:25:55;;;;;;;14.40;7.30;;;;;;;;;;5108473;28;20076;-68
2022/04/12 08:28:21;;;;;;;15.68;7.70;;;;;;;;;;5106510;28;20032;-68
2022/04/12 08:30:47;;;;;;;11.48;7.70;;;;;;;;;;5106455;28;20022;-68
2022/04/12 08:33:13;;;;;;;14.65;7.03;;;;;;;;;;5103111;28;20028;-68
2022/04/12 08:35:40;;;;;;;15.13;6.75;;;;;;;;;;5110130;28;20028;-67
2022/04/12 08:38:06;;;;;;;15.32;6.82;;;;;;;;;;5104772;27;20376;-68
2022/04/12 08:40:32;;;;;;;11.13;7.07;;;;;;;;;;5114442;27;20419;-68
2022/04/12 08:42:59;;;;;;;13.77;6.90;;;;;;;;;;5109829;28;20027;-68
2022/04/12 08:45:25;;;;;;;14.20;6.45;;;;;;;;;;5109874;28;20073;-68
2022/04/12 08:47:52;;;;;;;12.95;6.97;;;;;;;;;;5090391;28;20020;-68
2022/04/12 08:50:19;;;;;;;13.10;7.18;;;;;;;;;;5109217;28;20085;-68
2022/04/12 08:52:46;;;;;;;14.75;5.32;;;;;;;;;;5113338;28;20122;-68
2022/04/12 08:55:12;;;;;;;7.90;5.03;;;;;;;;;;5115955;27;20024;-68
2022/04/12 08:57:38;;;;;;;10.02;5.38;;;;;;;;;;5109461;28;20031;-68
2022/04/12 09:00:06;;;;;;;9.00;5.63;;;;;;;;;;5108915;28;20028;-68
2022/04/12 09:02:32;;;;;;;10.75;6.43;;;;;;;;;;5113583;28;20272;-68
2022/04/12 09:04:58;;;;;;;10.30;5.00;;;;;;;;;;5112381;28;20439;-68
2022/04/12 09:07:28;;;;;;;20.40;4.15;;;;;;;;;;5108458;28;20046;-68
2022/04/12 09:10:07;;;;;;;10.57;5.53;;;;;;;;;;5102991;27;20032;-68
2022/04/12 09:12:34;;;;;;;7.97;5.18;;;;;;;;;;5086963;28;20036;-68
2022/04/12 09:15:00;;;;;;;8.52;5.68;;;;;;;;;;5080630;28;20055;-68
2022/04/12 09:17:34;;;;;;;13.88;6.82;;;;;;;;;;5084821;28;20019;-68
2022/04/12 09:20:00;;;;;;;8.75;4.72;;;;;;;;;;5108018;28;20036;-68
2022/04/12 09:22:27;;;;;;;8.10;4.78;;;;;;;;;;5106254;28;20020;-68
2022/04/12 09:24:54;;;;;;;9.75;4.38;;;;;;;;;;5108873;27;20031;-68
2022/04/12 09:27:22;;;;;;;9.63;4.78;;;;;;;;;;5103896;28;20024;-69
2022/04/12 09:29:49;;;;;;;11.48;4.55;;;;;;;;;;5110873;28;20020;-68
2022/04/12 09:32:15;;;;;;;8.32;5.15;;;;;;;;;;5087759;28;20578;-69
2022/04/12 09:34:46;;;;;;;7.82;4.63;;;;;;;;;;5107557;28;20032;-68
2022/04/12 09:37:19;;;;;;;10.43;4.40;;;;;;;;;;5107885;28;20157;-68
2022/04/12 09:40:08;;;;;;;7.00;5.38;;;;;;;;;;5104216;27;20024;-68
2022/04/12 09:42:44;;;;;;;6.82;4.97;;;;;;;;;;5067089;28;20039;-68
2022/04/12 09:45:13;;;;;;;10.40;4.90;;;;;;;;;;5092427;28;20036;-68
2022/04/12 09:47:40;;;;;;;6.47;4.35;;;;;;;;;;5109668;28;20106;-68
2022/04/12 09:50:07;;;;;;;8.68;5.15;;;;;;;;;;5105778;28;20027;-69
2022/04/12 09:52:33;;;;;;;7.35;5.22;;;;;;;;;;5094237;28;20059;-68
2022/04/12 09:54:59;;;;;;;12.27;5.63;;;;;;;;;;5097230;28;20501;-68
2022/04/12 09:57:25;;;;;;;8.48;5.13;;;;;;;;;;5112445;28;20024;-68
2022/04/12 09:59:56;;;;;;;8.15;5.43;;;;;;;;;;5094193;28;20167;-68
2022/04/12 10:02:23;;;;;;;12.45;4.70;;;;;;;;;;5103682;28;20465;-68
2022/04/12 10:04:49;;;;;;;9.52;4.63;;;;;;;;;;5093844;28;20102;-68
2022/04/12 10:07:18;;;;;;;9.45;5.18;;;;;;;;;;5093115;28;20028;-69
2022/04/12 10:09:44;;;;;;;7.50;4.57;;;;;;;;;;5113869;27;20404;-68
2022/04/12 10:12:10;;;;;;;16.08;5.47;;;;;;;;;;5111197;28;20027;-68
2022/04/12 10:14:36;;;;;;;11.30;5.47;;;;;;;;;;5084726;28;20081;-68
2022/04/12 10:17:03;;;;;;;12.15;5.70;;;;;;;;;;5092722;28;20023;-69
2022/04/12 10:19:30;;;;;;;7.85;5.53;;;;;;;;;;5111438;28;20084;-68
2022/04/12 10:21:56;;;;;;;9.30;5.22;;;;;;;;;;5093472;28;20102;-69
2022/04/12 10:24:22;;;;;;;9.45;5.32;;;;;;;;;;5110843;27;20476;-68
2022/04/12 10:26:49;;;;;;;13.63;6.07;;;;;;;;;;5092973;28;20023;-69
2022/04/12 10:29:15;;;;;;;9.25;5.38;;;;;;;;;;5105920;28;20119;-69
2022/04/12 10:31:55;;;;;;;10.75;5.22;;;;;;;;;;5112178;28;20110;-68
2022/04/12 10:34:21;;;;;;;8.30;3.85;;;;;;;;;;5103685;28;20036;-68
2022/04/12 10:37:08;;;;;;;9.75;4.97;;;;;;;;;;5108455;28;20039;-69
2022/04/12 10:39:34;;;;;;;10.88;6.10;;;;;;;;;;5107646;27;20031;-68
2022/04/12 10:42:05;;;;;;;13.95;5.45;;;;;;;;;;5107687;28;20111;-69
2022/04/12 10:44:57;;;;;;;12.18;4.43;;;;;;;;;;5092464;28;20028;-71
2022/04/12 10:47:28;;;;;;;10.65;4.43;;;;;;;;;;5105508;28;20047;-68
2022/04/12 10:50:05;;;;;;;9.48;4.22;;;;;;;;;;5085739;28;20045;-68
2022/04/12 10:52:34;;;;;;;6.40;4.20;;;;;;;;;;5103076;28;20500;-68
2022/04/12 10:55:01;;;;;;;15.10;5.03;;;;;;;;;;5090520;28;20468;-68
2022/04/12 10:57:27;;;;;;;7.85;4.40;;;;;;;;;;5092454;28;20027;-68
2022/04/12 11:00:09;;;;;;;8.32;3.67;;;;;;;;;;5095150;28;20016;-68
2022/04/12 11:02:40;;;;;;;9.35;4.47;;;;;;;;;;5092481;28;20023;-68
2022/04/12 11:05:07;;;;;;;6.45;3.60;;;;;;;;;;5104909;28;20107;-68
2022/04/12 11:07:37;;;;;;;13.35;5.03;;;;;;;;;;5108468;28;20127;-68
2022/04/12 11:10:12;;;;;;;7.60;4.38;;;;;;;;;;5108844;27;20027;-68
2022/04/12 11:12:42;;;;;;;6.53;3.83;;;;;;;;;;5102772;28;20040;-68
2022/04/12 11:21:39;;;;;;;8.75;4.57;;;;;;;;;;5114972;28;20023;-70
2022/04/12 11:30:20;;;;;;;9.85;4.75;;;;;;;;;;5112677;28;20061;-70
2022/04/12 11:33:13;;;;;;;15.57;6.07;;;;;;;;;;5113937;28;20463;-69
2022/04/12 11:35:39;;;;;;;8.80;3.45;;;;;;;;;;5096132;28;20676;-68
2022/04/12 11:38:06;;;;;;;9.63;5.97;;;;;;;;;;5107117;28;20085;-68
2022/04/12 11:40:32;;;;;;;13.25;5.60;;;;;;;;;;5103024;27;20024;-68
2022/04/12 11:42:58;;;;;;;4.70;2.80;;;;;;;;;;5108723;28;20027;-68
2022/04/12 11:45:31;;;;;;;7.75;4.57;;;;;;;;;;5109229;28;20434;-69
2022/04/12 11:47:58;;;;;;;9.02;5.47;;;;;;;;;;5106617;28;20015;-68
2022/04/12 11:50:24;;;;;;;9.70;5.97;;;;;;;;;;5107935;28;20019;-69
2022/04/12 11:52:50;;;;;;;8.85;5.10;;;;;;;;;;5089018;28;20027;-68
2022/04/12 11:55:16;;;;;;;13.48;5.63;;;;;;;;;;5095494;28;20479;-70
2022/04/12 11:57:42;;;;;;;12.43;5.70;;;;;;;;;;5106411;28;20079;-69
2022/04/12 12:00:08;;;;;;;9.73;5.78;;;;;;;;;;5101072;28;20430;-68
2022/04/12 12:02:39;;;;;;;9.75;5.65;;;;;;;;;;5082197;28;20019;-68
2022/04/12 12:05:06;;;;;;;12.30;6.70;;;;;;;;;;5102798;28;20057;-69
2022/04/12 12:07:36;;;;;;;12.50;6.70;;;;;;;;;;5104136;28;20665;-69
2022/04/12 12:10:05;;;;;;;14.45;6.95;;;;;;;;;;5107307;28;20031;-69
2022/04/12 12:12:31;;;;;;;13.15;6.93;;;;;;;;;;5103448;28;20024;-69
2022/04/12 12:14:57;;;;;;;11.32;6.70;;;;;;;;;;5103886;28;20425;-68
2022/04/12 12:17:25;;;;;;;10.07;6.18;;;;;;;;;;5081780;28;20021;-69
2022/04/12 12:19:51;;;;;;;10.40;5.85;;;;;;;;;;5109048;28;20060;-68
2022/04/12 12:22:17;;;;;;;9.98;6.10;;;;;;;;;;5090835;28;20023;-69
2022/04/12 12:24:53;;;;;;;10.50;5.43;;;;;;;;;;5103937;28;20445;-69
2022/04/12 12:27:34;;;;;;;14.60;6.25;;;;;;;;;;5091488;28;20032;-69
2022/04/12 12:30:01;;;;;;;13.63;7.10;;;;;;;;;;5080661;28;20024;-68
2022/04/12 12:32:31;;;;;;;12.80;6.05;;;;;;;;;;5089182;28;20371;-69
2022/04/12 12:35:01;;;;;;;11.30;6.35;;;;;;;;;;5109956;28;20076;-68
2022/04/12 12:37:27;;;;;;;9.70;5.65;;;;;;;;;;5084858;28;20040;-69
2022/04/12 12:39:53;;;;;;;9.98;5.15;;;;;;;;;;5090842;28;20392;-69
2022/04/12 12:42:22;;;;;;;10.30;5.10;;;;;;;;;;5100586;28;20529;-68
2022/04/12 12:44:49;;;;;;;9.65;5.45;;;;;;;;;;5078580;28;20494;-69
2022/04/12 12:47:15;;;;;;;12.25;6.35;;;;;;;;;;5087180;28;20024;-71
2022/04/12 12:49:41;;;;;;;10.73;6.32;;;;;;;;;;5091261;28;20012;-68
2022/04/12 12:52:10;;;;;;;8.70;5.90;;;;;;;;;;5090295;28;20384;-69
2022/04/12 12:54:36;;;;;;;8.75;5.63;;;;;;;;;;5090126;28;20104;-68
2022/04/12 12:57:03;;;;;;;12.32;5.93;;;;;;;;;;5117447;28;20036;-68
2022/04/12 12:59:33;;;;;;;12.63;6.05;;;;;;;;;;5109038;28;20549;-68
2022/04/12 13:02:07;;;;;;;9.70;5.88;;;;;;;;;;5090675;28;20489;-69
2022/04/12 13:04:33;;;;;;;9.18;4.30;;;;;;;;;;5086560;28;20035;-69
2022/04/12 13:06:59;;;;;;;9.43;5.38;;;;;;;;;;5109400;28;20042;-68
2022/04/12 13:09:25;;;;;;;13.35;4.93;;;;;;;;;;5089527;28;20027;-68
2022/04/12 13:11:52;;;;;;;11.38;5.10;;;;;;;;;;5102629;28;20024;-68
2022/04/12 13:14:18;;;;;;;6.32;4.40;;;;;;;;;;5109037;28;20036;-69
2022/04/12 13:16:44;;;;;;;11.00;5.70;;;;;;;;;;5088698;28;20089;-68
2022/04/12 13:19:10;;;;;;;12.30;5.63;;;;;;;;;;5090467;28;20455;-69
2022/04/12 13:21:36;;;;;;;15.80;5.47;;;;;;;;;;5104552;28;20524;-69
2022/04/12 13:24:02;;;;;;;10.13;5.88;;;;;;;;;;5106903;28;20023;-69
2022/04/12 13:26:28;;;;;;;10.82;6.00;;;;;;;;;;5103034;27;20152;-69
2022/04/12 13:28:54;;;;;;;14.27;5.78;;;;;;;;;;5094706;28;20024;-69
2022/04/12 13:31:20;;;;;;;10.05;4.50;;;;;;;;;;5112757;28;20067;-69
2022/04/12 13:33:46;;;;;;;12.93;5.82;;;;;;;;;;5112359;28;20059;-69
2022/04/12 13:36:12;;;;;;;7.43;4.25;;;;;;;;;;5094006;28;20477;-68
2022/04/12 13:38:38;;;;;;;9.15;5.22;;;;;;;;;;5098623;28;20049;-69
2022/04/12 13:41:04;;;;;;;10.40;5.13;;;;;;;;;;5100972;28;20036;-69
2022/04/12 13:43:30;;;;;;;11.63;5.90;;;;;;;;;;5093930;28;20027;-68
2022/04/12 13:45:56;;;;;;;18.33;5.45;;;;;;;;;;5101857;28;20233;-69
2022/04/12 13:48:22;;;;;;;10.43;5.55;;;;;;;;;;5088461;28;20498;-69
2022/04/12 13:50:48;;;;;;;11.80;5.78;;;;;;;;;;5109924;28;20096;-69
2022/04/12 13:53:15;;;;;;;7.05;3.78;;;;;;;;;;5111541;28;20047;-69
2022/04/12 13:55:41;;;;;;;6.18;3.30;;;;;;;;;;5110838;28;20161;-69
2022/04/12 13:58:07;;;;;;;13.82;3.30;;;;;;;;;;5112012;28;20518;-69
2022/04/12 14:00:33;;;;;;;6.60;2.63;;;;;;;;;;5083558;28;20476;-69
2022/04/12 14:02:59;;;;;;;3.97;2.53;;;;;;;;;;5090646;28;20035;-69
2022/04/12 14:05:25;;;;;;;7.88;3.60;;;;;;;;;;5100924;28;20027;-69
2022/04/12 14:07:52;;;;;;;7.85;3.70;;;;;;;;;;5093634;28;20016;-69
2022/04/12 14:10:18;;;;;;;7.20;4.43;;;;;;;;;;5104675;28;20020;-69
2022/04/12 14:12:50;;;;;;;16.80;4.53;;;;;;;;;;5096067;28;20078;-69
2022/04/12 14:15:21;;;;;;;6.85;3.30;;;;;;;;;;5114619;28;20552;-69
2022/04/12 14:17:51;;;;;;;7.40;2.90;;;;;;;;;;5098104;28;20039;-70
2022/04/12 14:20:19;;;;;;;8.30;4.00;;;;;;;;;;5081140;28;20024;-69
2022/04/12 14:22:45;;;;;;;8.85;4.28;;;;;;;;;;5089045;28;20039;-69
2022/04/12 14:25:12;;;;;;;11.25;4.68;;;;;;;;;;5104026;28;20501;-69
2022/04/12 14:27:38;;;;;;;9.63;4.93;;;;;;;;;;5102148;27;20105;-69
2022/04/12 14:30:04;;;;;;;7.75;3.95;;;;;;;;;;5103097;28;20423;-69
2022/04/12 14:32:30;;;;;;;6.45;3.42;;;;;;;;;;5102861;28;20401;-69
2022/04/12 14:34:57;;;;;;;4.85;2.38;;;;;;;;;;5111755;28;20378;-68
2022/04/12 14:37:23;;;;;;;7.35;3.92;;;;;;;;;;5105090;28;20059;-69
2022/04/12 14:39:49;;;;;;;10.02;3.83;;;;;;;;;;5111800;28;20020;-69
2022/04/12 14:42:15;;;;;;;10.90;4.30;;;;;;;;;;5105497;27;20084;-69
2022/04/12 14:44:41;;;;;;;16.45;4.50;;;;;;;;;;5094506;28;20089;-69
2022/04/12 14:47:10;;;;;;;8.10;3.53;;;;;;;;;;5093322;28;20024;-69
2022/04/12 14:49:36;;;;;;;9.45;4.68;;;;;;;;;;5080577;28;20384;-69
2022/04/12 14:52:03;;;;;;;15.90;5.18;;;;;;;;;;5105404;28;20028;-69
2022/04/12 14:57:36;;;;;;;14.27;6.25;;;;;;;;;;5103910;28;20054;-69